createdAt,value
2022-11-20T00:00:13.224Z,22.55
2022-11-20T00:01:06.866Z,22.48
2022-11-20T00:02:00.631Z,22.51
2022-11-20T00:02:54.222Z,22.53
2022-11-20T00:03:47.818Z,22.52
2022-11-20T00:04:41.478Z,22.48
2022-11-20T00:05:35.064Z,22.44
2022-11-20T00:06:28.704Z,22.49
2022-11-20T00:07:22.377Z,22.49
2022-11-20T00:08:15.934Z,22.49
2022-11-20T00:09:09.568Z,22.53
2022-11-20T00:09:53.245Z,22.51
2022-11-20T00:10:46.875Z,22.41
2022-11-20T00:11:40.495Z,22.40
2022-11-20T00:12:34.138Z,22.44
2022-11-20T00:13:27.747Z,22.53
2022-11-20T00:14:21.379Z,22.55
2022-11-20T00:15:15.118Z,22.49
2022-11-20T00:16:08.715Z,22.41
2022-11-20T00:17:02.332Z,22.40
2022-11-20T00:17:55.977Z,22.46
2022-11-20T00:18:49.606Z,22.49
2022-11-20T00:19:43.235Z,22.46
2022-11-20T00:20:36.830Z,22.44
2022-11-20T00:21:30.459Z,22.44
2022-11-20T00:22:24.086Z,22.52
2022-11-20T00:23:17.715Z,22.48
2022-11-20T00:24:11.317Z,22.43
2022-11-20T00:25:04.952Z,22.48
2022-11-20T00:25:58.573Z,22.43
2022-11-20T00:26:52.187Z,22.43
2022-11-20T00:27:45.823Z,22.44
2022-11-20T00:28:39.435Z,22.41
2022-11-20T00:29:33.058Z,22.46
2022-11-20T00:30:26.688Z,22.52
2022-11-20T00:31:20.303Z,22.48
2022-11-20T00:32:13.938Z,22.43
2022-11-20T00:33:07.573Z,22.49
2022-11-20T00:34:01.193Z,22.48
2022-11-20T00:34:54.800Z,22.46
2022-11-20T00:35:48.435Z,22.44
2022-11-20T00:36:42.044Z,22.44
2022-11-20T00:37:35.676Z,22.46
2022-11-20T00:38:29.299Z,22.48
2022-11-20T00:39:23.386Z,22.44
2022-11-20T00:40:16.552Z,22.41
2022-11-20T00:41:10.161Z,22.40
2022-11-20T00:42:03.794Z,22.41
2022-11-20T00:42:57.405Z,22.41
2022-11-20T00:43:51.028Z,22.43
2022-11-20T00:44:44.647Z,22.41
2022-11-20T00:45:38.282Z,22.61
2022-11-20T00:46:31.902Z,22.53
2022-11-20T00:47:25.524Z,22.49
2022-11-20T00:48:19.160Z,22.38
2022-11-20T00:49:12.791Z,22.44
2022-11-20T00:50:06.392Z,22.55
2022-11-20T00:51:00.014Z,22.49
2022-11-20T00:51:53.675Z,22.49
2022-11-20T00:52:47.355Z,22.40
2022-11-20T00:53:41.085Z,22.48
2022-11-20T00:54:34.712Z,22.41
2022-11-20T00:55:28.340Z,22.37
2022-11-20T00:56:21.961Z,22.41
2022-11-20T00:57:15.589Z,22.49
2022-11-20T00:58:14.153Z,22.44
2022-11-20T00:59:02.814Z,22.44
2022-11-20T00:59:56.444Z,22.44
2022-11-20T01:00:50.192Z,22.44
2022-11-20T01:01:43.699Z,22.49
2022-11-20T01:02:37.325Z,22.44
2022-11-20T01:03:30.945Z,22.40
2022-11-20T01:04:24.589Z,22.40
2022-11-20T01:05:08.241Z,22.40
2022-11-20T01:06:01.885Z,22.41
2022-11-20T01:06:55.510Z,22.48
2022-11-20T01:07:49.270Z,22.49
2022-11-20T01:08:42.962Z,22.46
2022-11-20T01:09:36.587Z,22.46
2022-11-20T01:10:20.273Z,22.41
2022-11-20T01:11:13.914Z,22.43
2022-11-20T01:12:07.512Z,22.44
2022-11-20T01:13:01.155Z,22.44
2022-11-20T01:13:54.767Z,22.40
2022-11-20T01:14:48.380Z,22.49
2022-11-20T01:15:42.013Z,22.44
2022-11-20T01:16:35.746Z,22.44
2022-11-20T01:17:29.372Z,22.59
2022-11-20T01:18:23.000Z,22.40
2022-11-20T01:19:18.461Z,22.52
2022-11-20T01:20:10.235Z,22.38
2022-11-20T01:21:03.853Z,22.41
2022-11-20T01:21:57.473Z,22.41
2022-11-20T01:22:51.100Z,22.49
2022-11-20T01:23:44.720Z,22.53
2022-11-20T01:24:38.354Z,22.41
2022-11-20T01:25:31.964Z,22.44
2022-11-20T01:26:25.595Z,22.46
2022-11-20T01:27:19.211Z,22.43
2022-11-20T01:28:12.833Z,22.41
2022-11-20T01:29:06.467Z,22.37
2022-11-20T01:29:50.158Z,22.51
2022-11-20T01:30:43.774Z,22.43
2022-11-20T01:31:37.391Z,22.46
2022-11-20T01:32:31.029Z,22.43
2022-11-20T01:33:24.645Z,22.44
2022-11-20T01:34:18.274Z,22.51
2022-11-20T01:35:11.891Z,22.44
2022-11-20T01:36:05.516Z,22.43
2022-11-20T01:36:49.209Z,22.40
2022-11-20T01:37:42.855Z,22.46
2022-11-20T01:38:36.453Z,22.38
2022-11-20T01:39:30.083Z,22.48
2022-11-20T01:40:23.706Z,22.40
2022-11-20T01:41:17.332Z,22.44
2022-11-20T01:42:10.955Z,22.43
2022-11-20T01:43:04.573Z,22.48
2022-11-20T01:43:58.199Z,22.41
2022-11-20T01:44:41.895Z,22.40
2022-11-20T01:45:35.622Z,22.41
2022-11-20T01:46:29.240Z,22.52
2022-11-20T01:47:22.867Z,22.41
2022-11-20T01:48:16.490Z,22.41
2022-11-20T01:49:10.106Z,22.44
2022-11-20T01:50:03.751Z,22.41
2022-11-20T01:50:57.349Z,22.44
2022-11-20T01:51:50.974Z,22.40
2022-11-20T01:52:44.608Z,22.53
2022-11-20T01:53:38.247Z,22.40
2022-11-20T01:54:31.861Z,22.43
2022-11-20T01:55:25.485Z,22.41
2022-11-20T01:56:19.091Z,22.38
2022-11-20T01:57:12.710Z,22.43
2022-11-20T01:58:06.351Z,22.38
2022-11-20T01:58:59.965Z,22.43
2022-11-20T01:59:53.583Z,22.43
2022-11-20T02:00:47.221Z,22.44
2022-11-20T02:01:40.884Z,22.38
2022-11-20T02:02:34.452Z,22.37
2022-11-20T02:03:28.177Z,22.36
2022-11-20T02:04:21.802Z,22.36
2022-11-20T02:05:15.419Z,22.44
2022-11-20T02:06:09.053Z,22.43
2022-11-20T02:07:02.753Z,22.41
2022-11-20T02:07:56.299Z,22.41
2022-11-20T02:08:50.018Z,22.43
2022-11-20T02:09:33.702Z,22.44
2022-11-20T02:10:27.334Z,22.43
2022-11-20T02:11:20.996Z,22.40
2022-11-20T02:12:14.696Z,22.44
2022-11-20T02:13:08.305Z,22.44
2022-11-20T02:14:01.933Z,22.51
2022-11-20T02:14:55.557Z,22.40
2022-11-20T02:15:49.186Z,22.40
2022-11-20T02:16:42.915Z,22.34
2022-11-20T02:17:36.523Z,22.43
2022-11-20T02:18:30.148Z,22.34
2022-11-20T02:19:23.842Z,22.33
2022-11-20T02:20:17.398Z,22.36
2022-11-20T02:21:11.040Z,22.30
2022-11-20T02:22:04.652Z,22.34
2022-11-20T02:22:58.260Z,22.37
2022-11-20T02:23:51.896Z,22.36
2022-11-20T02:24:45.625Z,22.44
2022-11-20T02:25:39.239Z,22.31
2022-11-20T02:26:32.857Z,22.34
2022-11-20T02:27:26.487Z,22.33
2022-11-20T02:28:20.110Z,22.34
2022-11-20T02:29:13.721Z,22.31
2022-11-20T02:30:07.356Z,22.28
2022-11-20T02:31:00.980Z,22.30
2022-11-20T02:31:54.600Z,22.28
2022-11-20T02:32:48.233Z,22.36
2022-11-20T02:33:41.841Z,22.27
2022-11-20T02:34:35.463Z,22.27
2022-11-20T02:35:29.086Z,22.27
2022-11-20T02:36:22.709Z,22.34
2022-11-20T02:37:16.334Z,22.38
2022-11-20T02:38:09.957Z,22.28
2022-11-20T02:39:03.579Z,22.19
2022-11-20T02:39:57.202Z,22.21
2022-11-20T02:40:55.334Z,22.19
2022-11-20T02:41:44.455Z,22.16
2022-11-20T02:42:38.081Z,22.22
2022-11-20T02:43:21.763Z,22.21
2022-11-20T02:44:15.394Z,22.27
2022-11-20T02:45:09.033Z,22.21
2022-11-20T02:46:02.634Z,22.21
2022-11-20T02:46:56.267Z,22.18
2022-11-20T02:47:49.888Z,22.18
2022-11-20T02:48:43.503Z,22.23
2022-11-20T02:49:37.130Z,22.21
2022-11-20T02:50:30.772Z,22.18
2022-11-20T02:51:24.375Z,22.18
2022-11-20T02:52:17.999Z,22.21
2022-11-20T02:53:11.635Z,22.22
2022-11-20T02:54:05.247Z,22.19
2022-11-20T02:54:58.864Z,22.22
2022-11-20T02:55:52.495Z,22.22
2022-11-20T02:56:46.110Z,22.15
2022-11-20T02:57:39.729Z,22.12
2022-11-20T02:58:33.368Z,22.18
2022-11-20T02:59:26.999Z,22.15
2022-11-20T03:00:20.613Z,22.21
2022-11-20T03:01:14.328Z,22.18
2022-11-20T03:02:07.957Z,22.12
2022-11-20T03:03:01.577Z,22.15
2022-11-20T03:03:55.208Z,22.12
2022-11-20T03:04:48.816Z,22.18
2022-11-20T03:05:42.446Z,22.13
2022-11-20T03:06:36.064Z,22.19
2022-11-20T03:07:29.794Z,22.16
2022-11-20T03:08:23.315Z,22.11
2022-11-20T03:09:16.945Z,22.15
2022-11-20T03:10:10.559Z,22.18
2022-11-20T03:11:04.183Z,22.16
2022-11-20T03:11:57.804Z,22.12
2022-11-20T03:12:51.448Z,22.06
2022-11-20T03:13:45.046Z,22.06
2022-11-20T03:14:38.679Z,21.98
2022-11-20T03:15:32.300Z,22.09
2022-11-20T03:16:26.045Z,22.01
2022-11-20T03:17:19.645Z,22.00
2022-11-20T03:18:13.283Z,22.01
2022-11-20T03:19:06.896Z,22.01
2022-11-20T03:20:00.528Z,22.04
2022-11-20T03:20:54.241Z,22.01
2022-11-20T03:21:47.869Z,22.01
2022-11-20T03:22:41.486Z,22.03
2022-11-20T03:23:35.097Z,22.06
2022-11-20T03:24:28.836Z,21.97
2022-11-20T03:25:22.460Z,22.04
2022-11-20T03:26:16.074Z,22.01
2022-11-20T03:27:09.697Z,22.03
2022-11-20T03:28:03.329Z,21.98
2022-11-20T03:28:56.941Z,21.94
2022-11-20T03:29:50.575Z,22.01
2022-11-20T03:30:44.193Z,21.98
2022-11-20T03:31:37.934Z,22.01
2022-11-20T03:32:31.542Z,21.98
2022-11-20T03:33:25.162Z,22.01
2022-11-20T03:34:18.787Z,21.98
2022-11-20T03:35:12.420Z,21.90
2022-11-20T03:36:06.045Z,21.96
2022-11-20T03:36:59.681Z,21.90
2022-11-20T03:37:53.273Z,21.97
2022-11-20T03:38:46.914Z,21.91
2022-11-20T03:39:40.525Z,21.96
2022-11-20T03:40:34.152Z,21.96
2022-11-20T03:41:27.779Z,21.93
2022-11-20T03:42:21.415Z,21.91
2022-11-20T03:43:15.019Z,21.91
2022-11-20T03:44:08.638Z,21.91
2022-11-20T03:45:02.265Z,21.93
2022-11-20T03:45:55.887Z,21.97
2022-11-20T03:46:49.523Z,21.96
2022-11-20T03:47:43.131Z,21.91
2022-11-20T03:48:36.761Z,21.85
2022-11-20T03:49:30.378Z,21.84
2022-11-20T03:50:23.994Z,21.84
2022-11-20T03:51:17.623Z,21.96
2022-11-20T03:52:11.248Z,21.90
2022-11-20T03:53:04.872Z,21.82
2022-11-20T03:53:58.521Z,21.88
2022-11-20T03:54:52.112Z,21.82
2022-11-20T03:55:45.748Z,21.98
2022-11-20T03:56:39.357Z,21.88
2022-11-20T03:57:32.988Z,21.88
2022-11-20T03:58:26.606Z,21.80
2022-11-20T03:59:20.684Z,21.84
2022-11-20T04:00:13.853Z,21.81
2022-11-20T04:01:07.488Z,21.90
2022-11-20T04:02:01.208Z,21.84
2022-11-20T04:02:54.719Z,21.82
2022-11-20T04:03:48.354Z,21.84
2022-11-20T04:04:41.978Z,21.78
2022-11-20T04:05:35.587Z,21.74
2022-11-20T04:06:29.211Z,21.78
2022-11-20T04:07:22.877Z,21.75
2022-11-20T04:08:16.462Z,21.75
2022-11-20T04:09:10.091Z,21.80
2022-11-20T04:10:03.805Z,21.85
2022-11-20T04:10:57.431Z,21.74
2022-11-20T04:11:51.058Z,21.75
2022-11-20T04:12:44.684Z,21.75
2022-11-20T04:13:38.302Z,21.77
2022-11-20T04:14:31.931Z,21.74
2022-11-20T04:15:25.541Z,21.80
2022-11-20T04:16:19.167Z,21.71
2022-11-20T04:17:12.806Z,21.74
2022-11-20T04:18:06.412Z,21.69
2022-11-20T04:19:00.053Z,21.74
2022-11-20T04:19:53.663Z,21.73
2022-11-20T04:20:47.294Z,21.67
2022-11-20T04:21:40.919Z,21.69
2022-11-20T04:22:34.544Z,21.74
2022-11-20T04:23:29.001Z,21.74
2022-11-20T04:24:21.775Z,21.66
2022-11-20T04:25:15.401Z,21.67
2022-11-20T04:26:09.023Z,21.81
2022-11-20T04:27:02.659Z,21.71
2022-11-20T04:27:56.271Z,21.69
2022-11-20T04:28:49.906Z,21.73
2022-11-20T04:29:33.575Z,21.77
2022-11-20T04:30:27.208Z,21.71
2022-11-20T04:31:20.839Z,21.69
2022-11-20T04:32:14.471Z,21.75
2022-11-20T04:33:08.079Z,21.75
2022-11-20T04:34:01.713Z,21.77
2022-11-20T04:34:55.427Z,21.66
2022-11-20T04:35:49.057Z,21.71
2022-11-20T04:36:42.674Z,21.80
2022-11-20T04:37:36.305Z,21.73
2022-11-20T04:38:29.922Z,21.78
2022-11-20T04:39:23.941Z,21.66
2022-11-20T04:40:17.163Z,21.69
2022-11-20T04:41:10.797Z,21.75
2022-11-20T04:42:04.409Z,21.78
2022-11-20T04:42:58.041Z,21.71
2022-11-20T04:43:51.660Z,21.69
2022-11-20T04:44:45.282Z,21.67
2022-11-20T04:45:38.902Z,21.80
2022-11-20T04:46:32.537Z,21.75
2022-11-20T04:47:26.149Z,21.67
2022-11-20T04:48:19.781Z,21.69
2022-11-20T04:49:13.458Z,21.69
2022-11-20T04:50:07.041Z,21.71
2022-11-20T04:51:00.645Z,21.74
2022-11-20T04:51:54.257Z,21.73
2022-11-20T04:52:47.895Z,21.75
2022-11-20T04:53:41.521Z,21.69
2022-11-20T04:54:35.133Z,21.69
2022-11-20T04:55:28.762Z,21.73
2022-11-20T04:56:22.388Z,21.74
2022-11-20T04:57:16.006Z,21.74
2022-11-20T04:58:09.632Z,21.69
2022-11-20T04:59:03.259Z,21.67
2022-11-20T04:59:56.875Z,21.67
2022-11-20T05:00:50.505Z,21.73
2022-11-20T05:01:44.189Z,21.67
2022-11-20T05:02:37.737Z,21.67
2022-11-20T05:03:31.352Z,21.77
2022-11-20T05:04:25.032Z,21.66
2022-11-20T05:05:18.726Z,21.69
2022-11-20T05:06:12.345Z,21.73
2022-11-20T05:07:06.015Z,21.69
2022-11-20T05:07:59.582Z,21.67
2022-11-20T05:08:53.196Z,21.73
2022-11-20T05:09:46.834Z,21.67
2022-11-20T05:10:40.457Z,21.66
2022-11-20T05:11:34.069Z,21.69
2022-11-20T05:12:27.695Z,21.69
2022-11-20T05:13:21.319Z,21.62
2022-11-20T05:14:14.940Z,21.73
2022-11-20T05:15:08.570Z,21.63
2022-11-20T05:16:02.188Z,21.62
2022-11-20T05:16:55.812Z,21.71
2022-11-20T05:17:49.438Z,21.62
2022-11-20T05:18:43.086Z,21.66
2022-11-20T05:19:36.780Z,21.62
2022-11-20T05:20:30.435Z,21.63
2022-11-20T05:21:24.038Z,21.60
2022-11-20T05:22:17.652Z,21.58
2022-11-20T05:23:11.278Z,21.65
2022-11-20T05:23:54.954Z,21.59
2022-11-20T05:24:48.604Z,21.63
2022-11-20T05:25:42.219Z,21.60
2022-11-20T05:26:35.839Z,21.65
2022-11-20T05:27:29.464Z,21.62
2022-11-20T05:28:23.092Z,21.59
2022-11-20T05:29:16.706Z,21.59
2022-11-20T05:30:10.342Z,21.59
2022-11-20T05:31:03.965Z,21.60
2022-11-20T05:31:57.571Z,21.62
2022-11-20T05:32:51.208Z,21.65
2022-11-20T05:33:44.815Z,21.58
2022-11-20T05:34:38.435Z,21.65
2022-11-20T05:35:32.079Z,21.66
2022-11-20T05:36:25.702Z,21.62
2022-11-20T05:37:19.312Z,21.62
2022-11-20T05:38:12.937Z,21.65
2022-11-20T05:39:06.555Z,21.58
2022-11-20T05:40:00.202Z,21.60
2022-11-20T05:40:53.807Z,21.22
2022-11-20T05:41:47.459Z,21.16
2022-11-20T05:42:41.062Z,21.19
2022-11-20T05:43:34.678Z,21.28
2022-11-20T05:44:28.298Z,21.38
2022-11-20T05:45:22.413Z,21.38
2022-11-20T05:46:16.078Z,21.37
2022-11-20T05:47:09.691Z,21.44
2022-11-20T05:48:03.307Z,21.44
2022-11-20T05:48:56.926Z,21.44
2022-11-20T05:49:50.546Z,21.50
2022-11-20T05:50:44.190Z,21.47
2022-11-20T05:51:37.789Z,21.51
2022-11-20T05:52:31.430Z,21.53
2022-11-20T05:53:27.644Z,21.51
2022-11-20T05:54:18.668Z,21.47
2022-11-20T05:55:12.284Z,21.37
2022-11-20T05:56:05.916Z,21.45
2022-11-20T05:56:59.526Z,21.53
2022-11-20T05:57:53.463Z,21.51
2022-11-20T05:58:47.140Z,21.50
2022-11-20T05:59:40.872Z,21.53
2022-11-20T06:00:34.489Z,21.50
2022-11-20T06:01:28.111Z,21.55
2022-11-20T06:02:21.829Z,21.55
2022-11-20T06:03:15.476Z,21.56
2022-11-20T06:04:09.085Z,21.51
2022-11-20T06:05:02.699Z,21.53
2022-11-20T06:05:56.531Z,21.55
2022-11-20T06:06:51.076Z,21.53
2022-11-20T06:07:44.705Z,21.55
2022-11-20T06:08:38.321Z,21.53
2022-11-20T06:09:31.947Z,21.43
2022-11-20T06:10:25.570Z,21.50
2022-11-20T06:11:19.185Z,21.56
2022-11-20T06:12:12.821Z,21.59
2022-11-20T06:13:06.435Z,21.65
2022-11-20T06:14:00.063Z,21.62
2022-11-20T06:14:53.686Z,21.59
2022-11-20T06:15:47.300Z,21.60
2022-11-20T06:16:40.924Z,21.71
2022-11-20T06:17:34.552Z,21.78
2022-11-20T06:18:28.165Z,21.77
2022-11-20T06:19:22.084Z,21.71
2022-11-20T06:20:15.420Z,21.71
2022-11-20T06:21:09.049Z,21.85
2022-11-20T06:22:03.611Z,21.91
2022-11-20T06:22:57.214Z,21.94
2022-11-20T06:23:50.830Z,21.96
2022-11-20T06:24:44.458Z,22.04
2022-11-20T06:25:38.075Z,22.06
2022-11-20T06:26:31.698Z,22.06
2022-11-20T06:27:25.316Z,22.01
2022-11-20T06:28:18.962Z,22.12
2022-11-20T06:29:12.582Z,22.13
2022-11-20T06:30:06.195Z,22.21
2022-11-20T06:30:59.850Z,22.21
2022-11-20T06:31:43.507Z,22.25
2022-11-20T06:32:37.139Z,22.33
2022-11-20T06:33:30.769Z,22.23
2022-11-20T06:34:24.392Z,22.36
2022-11-20T06:35:18.005Z,22.30
2022-11-20T06:36:11.644Z,22.27
2022-11-20T06:37:05.243Z,22.37
2022-11-20T06:37:58.871Z,22.31
2022-11-20T06:38:52.514Z,22.40
2022-11-20T06:39:46.131Z,22.41
2022-11-20T06:40:39.739Z,22.43
2022-11-20T06:41:33.366Z,22.36
2022-11-20T06:42:26.995Z,22.37
2022-11-20T06:43:20.608Z,22.44
2022-11-20T06:44:14.244Z,22.33
2022-11-20T06:45:07.867Z,22.34
2022-11-20T06:46:01.486Z,22.33
2022-11-20T06:46:55.104Z,22.37
2022-11-20T06:47:48.726Z,22.37
2022-11-20T06:48:42.368Z,22.37
2022-11-20T06:49:35.970Z,22.48
2022-11-20T06:50:29.644Z,22.44
2022-11-20T06:51:23.327Z,22.38
2022-11-20T06:52:16.946Z,22.34
2022-11-20T06:53:10.580Z,22.31
2022-11-20T06:54:04.215Z,22.36
2022-11-20T06:54:57.807Z,22.28
2022-11-20T06:55:51.438Z,22.44
2022-11-20T06:56:45.054Z,22.38
2022-11-20T06:57:38.685Z,22.44
2022-11-20T06:58:32.300Z,22.51
2022-11-20T06:59:25.933Z,22.38
2022-11-20T07:00:19.555Z,22.44
2022-11-20T07:01:14.296Z,22.41
2022-11-20T07:02:07.812Z,22.38
2022-11-20T07:03:01.441Z,22.43
2022-11-20T07:03:55.065Z,22.43
2022-11-20T07:04:48.694Z,22.43
2022-11-20T07:05:42.425Z,22.41
2022-11-20T07:06:36.033Z,22.41
2022-11-20T07:07:29.705Z,22.36
2022-11-20T07:08:23.280Z,22.34
2022-11-20T07:09:16.918Z,22.30
2022-11-20T07:10:10.548Z,22.28
2022-11-20T07:11:04.159Z,22.36
2022-11-20T07:11:47.842Z,22.31
2022-11-20T07:12:41.473Z,22.28
2022-11-20T07:13:35.104Z,22.30
2022-11-20T07:14:28.709Z,22.38
2022-11-20T07:15:22.354Z,22.38
2022-11-20T07:16:15.983Z,22.34
2022-11-20T07:17:09.604Z,22.44
2022-11-20T07:18:03.221Z,22.38
2022-11-20T07:18:56.835Z,22.44
2022-11-20T07:19:50.456Z,22.44
2022-11-20T07:20:34.161Z,22.41
2022-11-20T07:21:27.768Z,22.43
2022-11-20T07:22:21.385Z,22.40
2022-11-20T07:23:15.008Z,22.46
2022-11-20T07:24:08.634Z,22.34
2022-11-20T07:25:02.265Z,22.43
2022-11-20T07:25:55.926Z,22.38
2022-11-20T07:26:49.612Z,22.44
2022-11-20T07:27:43.234Z,22.40
2022-11-20T07:28:36.863Z,22.37
2022-11-20T07:29:30.515Z,22.33
2022-11-20T07:30:24.100Z,22.31
2022-11-20T07:31:19.560Z,22.40
2022-11-20T07:32:11.346Z,22.40
2022-11-20T07:33:04.981Z,22.43
2022-11-20T07:33:58.595Z,22.37
2022-11-20T07:34:52.214Z,22.41
2022-11-20T07:35:45.837Z,22.37
2022-11-20T07:36:39.471Z,22.37
2022-11-20T07:37:33.092Z,22.46
2022-11-20T07:38:26.736Z,22.38
2022-11-20T07:39:20.582Z,22.41
2022-11-20T07:40:13.949Z,22.43
2022-11-20T07:41:07.590Z,22.44
2022-11-20T07:42:01.199Z,22.44
2022-11-20T07:42:54.821Z,22.38
2022-11-20T07:43:48.454Z,22.41
2022-11-20T07:44:42.069Z,22.43
2022-11-20T07:45:35.695Z,22.33
2022-11-20T07:46:29.321Z,22.33
2022-11-20T07:47:22.948Z,22.31
2022-11-20T07:48:16.558Z,22.36
2022-11-20T07:49:10.183Z,22.41
2022-11-20T07:50:03.807Z,22.31
2022-11-20T07:50:57.440Z,22.46
2022-11-20T07:51:52.050Z,22.33
2022-11-20T07:52:44.688Z,22.36
2022-11-20T07:53:38.299Z,22.30
2022-11-20T07:54:31.918Z,22.34
2022-11-20T07:55:25.550Z,22.34
2022-11-20T07:56:19.284Z,22.34
2022-11-20T07:57:12.889Z,22.41
2022-11-20T07:58:06.525Z,22.43
2022-11-20T07:59:00.146Z,22.38
2022-11-20T07:59:53.757Z,22.34
2022-11-20T08:00:47.442Z,22.34
2022-11-20T08:01:42.019Z,22.37
2022-11-20T08:02:35.655Z,22.31
2022-11-20T08:03:29.287Z,22.41
2022-11-20T08:04:22.903Z,22.33
2022-11-20T08:05:16.534Z,22.44
2022-11-20T08:06:10.147Z,22.40
2022-11-20T08:07:03.811Z,22.41
2022-11-20T08:07:57.502Z,22.33
2022-11-20T08:08:51.129Z,22.31
2022-11-20T08:09:44.743Z,22.34
2022-11-20T08:10:38.364Z,22.34
2022-11-20T08:11:32.667Z,22.34
2022-11-20T08:12:26.320Z,22.36
2022-11-20T08:13:19.960Z,22.31
2022-11-20T08:14:13.574Z,22.43
2022-11-20T08:15:12.627Z,22.34
2022-11-20T08:15:50.906Z,22.36
2022-11-20T08:16:34.587Z,22.38
2022-11-20T08:17:28.211Z,22.48
2022-11-20T08:18:37.209Z,22.43
2022-11-20T08:19:15.459Z,22.43
2022-11-20T08:20:09.091Z,22.43
2022-11-20T08:21:02.704Z,22.41
2022-11-20T08:21:56.320Z,22.48
2022-11-20T08:22:49.956Z,22.44
2022-11-20T08:23:43.569Z,22.44
2022-11-20T08:24:37.194Z,22.40
2022-11-20T08:25:30.823Z,22.52
2022-11-20T08:26:24.521Z,22.40
2022-11-20T08:27:18.171Z,22.37
2022-11-20T08:28:20.346Z,22.41
2022-11-20T08:29:05.412Z,22.44
2022-11-20T08:29:59.031Z,22.43
2022-11-20T08:30:52.780Z,22.43
2022-11-20T08:31:46.397Z,22.43
2022-11-20T08:32:40.035Z,22.48
2022-11-20T08:33:33.637Z,22.48
2022-11-20T08:34:27.259Z,22.34
2022-11-20T08:35:20.871Z,22.34
2022-11-20T08:36:14.595Z,22.43
2022-11-20T08:37:08.247Z,22.44
2022-11-20T08:38:01.846Z,22.34
2022-11-20T08:38:55.464Z,22.30
2022-11-20T08:39:49.101Z,22.36
2022-11-20T08:40:42.717Z,22.31
2022-11-20T08:41:36.336Z,22.25
2022-11-20T08:42:29.980Z,22.33
2022-11-20T08:43:23.587Z,22.30
2022-11-20T08:44:17.214Z,22.30
2022-11-20T08:45:10.847Z,22.30
2022-11-20T08:46:04.459Z,22.31
2022-11-20T08:46:58.994Z,22.27
2022-11-20T08:47:52.625Z,22.33
2022-11-20T08:48:46.274Z,22.36
2022-11-20T08:49:39.872Z,22.30
2022-11-20T08:50:34.148Z,22.27
2022-11-20T08:51:27.110Z,22.31
2022-11-20T08:52:20.744Z,22.37
2022-11-20T08:53:14.362Z,22.23
2022-11-20T08:54:07.980Z,22.25
2022-11-20T08:55:01.613Z,22.33
2022-11-20T08:55:55.233Z,22.34
2022-11-20T08:56:48.850Z,22.27
2022-11-20T08:57:45.556Z,22.28
2022-11-20T08:59:02.003Z,22.31
2022-11-20T09:00:03.849Z,22.27
2022-11-20T09:00:23.454Z,22.33
2022-11-20T09:01:17.017Z,22.30
2022-11-20T09:02:10.587Z,22.30
2022-11-20T09:03:04.216Z,22.44
2022-11-20T09:03:57.841Z,22.41
2022-11-20T09:04:51.460Z,22.36
2022-11-20T09:05:45.091Z,22.40
2022-11-20T09:06:38.807Z,22.30
2022-11-20T09:07:32.490Z,22.34
2022-11-20T09:08:26.055Z,22.38
2022-11-20T09:09:19.883Z,22.43
2022-11-20T09:10:28.775Z,22.34
2022-11-20T09:11:06.923Z,22.36
2022-11-20T09:12:00.535Z,22.34
2022-11-20T09:12:54.164Z,22.33
2022-11-20T09:13:47.784Z,22.34
2022-11-20T09:14:41.411Z,22.33
2022-11-20T09:15:35.044Z,22.33
2022-11-20T09:16:28.656Z,22.41
2022-11-20T09:17:22.276Z,22.43
2022-11-20T09:18:15.913Z,22.43
2022-11-20T09:20:03.253Z,22.36
2022-11-20T09:20:57.045Z,22.31
2022-11-20T09:21:50.592Z,22.44
2022-11-20T09:22:44.223Z,22.44
2022-11-20T09:23:37.845Z,22.38
2022-11-20T09:24:31.465Z,22.41
2022-11-20T09:25:25.096Z,22.43
2022-11-20T09:26:18.722Z,22.34
2022-11-20T09:27:12.338Z,22.43
2022-11-20T09:28:05.955Z,22.41
2022-11-20T09:28:59.584Z,22.38
2022-11-20T09:29:53.204Z,22.44
2022-11-20T09:30:46.837Z,22.34
2022-11-20T09:31:40.456Z,22.38
2022-11-20T09:32:34.082Z,22.46
2022-11-20T09:33:27.700Z,22.44
2022-11-20T09:34:21.326Z,22.38
2022-11-20T09:35:14.846Z,22.43
2022-11-20T09:36:08.388Z,22.43
2022-11-20T09:37:06.231Z,22.40
2022-11-20T09:37:55.444Z,22.40
2022-11-20T09:38:48.978Z,22.44
2022-11-20T09:39:42.513Z,22.48
2022-11-20T09:40:36.169Z,22.43
2022-11-20T09:41:29.811Z,22.46
2022-11-20T09:42:23.416Z,22.43
2022-11-20T09:43:31.073Z,22.43
2022-11-20T09:44:20.735Z,22.38
2022-11-20T09:45:14.273Z,22.41
2022-11-20T09:46:07.797Z,22.44
2022-11-20T09:47:01.332Z,22.43
2022-11-20T09:47:54.851Z,22.41
2022-11-20T09:48:48.373Z,22.46
2022-11-20T09:49:41.908Z,22.33
2022-11-20T09:50:35.440Z,22.31
2022-11-20T09:51:28.950Z,22.38
2022-11-20T09:52:22.490Z,22.36
2022-11-20T09:53:16.023Z,22.37
2022-11-20T09:54:09.555Z,22.31
2022-11-20T09:55:04.081Z,22.37
2022-11-20T09:55:57.618Z,22.31
2022-11-20T09:56:51.158Z,22.33
2022-11-20T09:57:44.690Z,22.28
2022-11-20T09:58:38.234Z,22.43
2022-11-20T09:59:31.765Z,22.40
2022-11-20T10:00:25.297Z,22.28
2022-11-20T10:01:18.964Z,22.38
2022-11-20T10:02:12.362Z,22.46
2022-11-20T10:03:05.893Z,22.31
2022-11-20T10:03:59.927Z,21.90
2022-11-20T10:04:53.464Z,21.96
2022-11-20T10:05:46.990Z,22.04
2022-11-20T10:06:40.529Z,22.03
2022-11-20T10:07:34.264Z,22.13
2022-11-20T10:08:27.598Z,22.25
2022-11-20T10:09:21.439Z,22.18
2022-11-20T10:10:14.663Z,22.30
2022-11-20T10:11:08.197Z,22.28
2022-11-20T10:12:01.743Z,22.30
2022-11-20T10:12:55.774Z,22.33
2022-11-20T10:13:49.302Z,22.37
2022-11-20T10:14:42.832Z,22.38
2022-11-20T10:15:36.366Z,22.41
2022-11-20T10:16:29.910Z,22.44
2022-11-20T10:17:23.448Z,22.30
2022-11-20T10:18:16.988Z,22.43
2022-11-20T10:19:10.515Z,22.27
2022-11-20T10:20:04.051Z,22.38
2022-11-20T10:20:57.597Z,22.31
2022-11-20T10:21:51.126Z,22.36
2022-11-20T10:22:44.666Z,22.31
2022-11-20T10:23:38.188Z,22.31
2022-11-20T10:24:31.723Z,22.37
2022-11-20T10:25:25.267Z,22.40
2022-11-20T10:26:19.288Z,22.40
2022-11-20T10:27:12.829Z,22.43
2022-11-20T10:28:06.350Z,22.51
2022-11-20T10:29:02.404Z,22.44
2022-11-20T10:29:53.409Z,22.52
2022-11-20T10:30:46.937Z,22.43
2022-11-20T10:31:40.468Z,22.41
2022-11-20T10:32:33.992Z,22.51
2022-11-20T10:33:38.779Z,22.41
2022-11-20T10:34:12.639Z,22.44
2022-11-20T10:35:05.191Z,22.40
2022-11-20T10:35:58.734Z,22.44
2022-11-20T10:36:52.254Z,22.38
2022-11-20T10:37:45.776Z,22.43
2022-11-20T10:38:39.310Z,22.46
2022-11-20T10:39:32.852Z,22.48
2022-11-20T10:40:26.367Z,22.41
2022-11-20T10:41:19.996Z,22.43
2022-11-20T10:42:13.425Z,22.44
2022-11-20T10:43:06.960Z,22.40
2022-11-20T10:44:00.483Z,22.44
2022-11-20T10:44:56.751Z,22.41
2022-11-20T10:45:47.535Z,22.46
2022-11-20T10:46:41.046Z,22.41
2022-11-20T10:47:34.580Z,22.41
2022-11-20T10:48:28.110Z,22.41
2022-11-20T10:49:21.837Z,22.41
2022-11-20T10:50:20.567Z,22.43
2022-11-20T10:51:08.708Z,22.41
2022-11-20T10:52:02.221Z,22.46
2022-11-20T10:52:55.758Z,22.46
2022-11-20T10:53:39.414Z,22.38
2022-11-20T10:54:32.953Z,22.43
2022-11-20T10:55:26.471Z,22.48
2022-11-20T10:56:19.995Z,22.38
2022-11-20T10:57:13.514Z,22.43
2022-11-20T10:58:07.038Z,22.44
2022-11-20T10:59:00.585Z,22.41
2022-11-20T10:59:54.117Z,22.41
2022-11-20T11:00:47.684Z,22.43
2022-11-20T11:01:41.177Z,22.38
2022-11-20T11:02:34.705Z,22.40
2022-11-20T11:03:28.238Z,22.43
2022-11-20T11:04:21.753Z,22.48
2022-11-20T11:05:15.281Z,22.41
2022-11-20T11:06:08.805Z,22.43
2022-11-20T11:07:02.383Z,22.41
2022-11-20T11:07:55.885Z,22.44
2022-11-20T11:08:49.898Z,22.38
2022-11-20T11:09:43.415Z,22.48
2022-11-20T11:10:36.950Z,22.36
2022-11-20T11:11:30.975Z,22.52
2022-11-20T11:12:24.536Z,22.43
2022-11-20T11:13:18.086Z,22.44
2022-11-20T11:14:11.613Z,22.41
2022-11-20T11:15:05.145Z,22.41
2022-11-20T11:15:58.704Z,22.41
2022-11-20T11:16:52.234Z,22.44
2022-11-20T11:17:45.776Z,22.48
2022-11-20T11:18:39.311Z,22.56
2022-11-20T11:19:33.334Z,22.58
2022-11-20T11:20:26.860Z,22.66
2022-11-20T11:21:20.394Z,22.68
2022-11-20T11:22:13.919Z,22.70
2022-11-20T11:23:07.449Z,22.73
2022-11-20T11:24:19.882Z,22.74
2022-11-20T11:24:55.507Z,22.74
2022-11-20T11:25:49.040Z,22.68
2022-11-20T11:26:42.569Z,22.77
2022-11-20T11:27:36.108Z,22.66
2022-11-20T11:28:44.665Z,22.62